Time;durP1;ratioP1;P1;durP2;ratioP2;P2;SDS_P1;SDS_P2;PMS_P1;PMS_P2;Temp;Humidity;BMP_temperature;BMP_pressure;BME280_temperature;BME280_humidity;BME280_pressure;Samples;Min_cycle;Max_cycle;Signal;HPM_P1;HPM_P2
2022/11/28 00:01:28;;;;;;;;;;;6.40;99.90;;;;;;5051136;28;19978;-63
2022/11/28 00:03:56;;;;;;;;;;;6.40;99.90;;;;;;5044778;28;19968;-63
2022/11/28 00:06:26;;;;;;;;;;;6.40;99.90;;;;;;5051361;28;19969;-63
2022/11/28 00:08:54;;;;;;;;;;;6.30;99.90;;;;;;5045724;28;19972;-63
2022/11/28 00:11:22;;;;;;;;;;;6.30;99.90;;;;;;5031008;28;19968;-63
2022/11/28 00:13:50;;;;;;;;;;;6.10;99.90;;;;;;5031968;28;20377;-63
2022/11/28 00:16:20;;;;;;;;;;;6.00;99.90;;;;;;5031968;28;19973;-63
2022/11/28 00:18:49;;;;;;;;;;;5.90;99.90;;;;;;5031041;28;19992;-63
2022/11/28 00:21:18;;;;;;;;;;;5.90;99.90;;;;;;5030954;28;19975;-63
2022/11/28 00:23:46;;;;;;;;;;;5.90;99.90;;;;;;5044383;28;19979;-63
2022/11/28 00:26:15;;;;;;;;;;;5.80;99.90;;;;;;5051338;28;19978;-63
2022/11/28 00:28:43;;;;;;;;;;;5.80;99.90;;;;;;5051377;28;20451;-63
2022/11/28 00:31:12;;;;;;;;;;;5.70;99.90;;;;;;5050899;28;19968;-63
2022/11/28 00:33:40;;;;;;;;;;;5.70;99.90;;;;;;5051256;28;20063;-63
2022/11/28 00:36:10;;;;;;;;;;;5.60;99.90;;;;;;5035301;28;19978;-63
2022/11/28 00:38:37;;;;;;;;;;;5.50;99.90;;;;;;5031244;28;20377;-63
2022/11/28 00:41:06;;;;;;;;;;;5.60;99.90;;;;;;5046404;28;19974;-63
2022/11/28 00:43:34;;;;;;;;;;;5.90;99.90;;;;;;5051403;28;20055;-63
2022/11/28 00:46:02;;;;;;;;;;;6.00;99.90;;;;;;5051276;28;19968;-63
2022/11/28 00:48:30;;;;;;;;;;;6.10;99.90;;;;;;5051178;28;19972;-63
2022/11/28 00:51:05;;;;;;;;;;;6.10;99.90;;;;;;5050602;28;19968;-63
2022/11/28 00:53:34;;;;;;;;;;;6.30;99.90;;;;;;5051071;28;20340;-63
2022/11/28 00:56:03;;;;;;;;;;;6.10;99.90;;;;;;5051144;28;20501;-63
2022/11/28 00:58:31;;;;;;;;;;;5.90;99.90;;;;;;5049642;28;19972;-63
2022/11/28 01:00:59;;;;;;;;;;;6.00;99.90;;;;;;5050229;28;19964;-63
2022/11/28 01:03:27;;;;;;;;;;;5.80;99.90;;;;;;5048011;28;19968;-63
2022/11/28 01:05:54;;;;;;;;;;;5.70;99.90;;;;;;5036959;28;19969;-64
2022/11/28 01:08:22;;;;;;;;;;;5.70;99.90;;;;;;5030967;28;19969;-63
2022/11/28 01:10:51;;;;;;;;;;;5.80;99.90;;;;;;5030610;28;19972;-63
2022/11/28 01:13:19;;;;;;;;;;;5.70;99.90;;;;;;5031718;28;19975;-63
2022/11/28 01:15:47;;;;;;;;;;;5.70;99.90;;;;;;5051022;28;20058;-63
2022/11/28 01:18:15;;;;;;;;;;;5.80;99.90;;;;;;5050283;28;19968;-63
2022/11/28 01:20:43;;;;;;;;;;;5.80;99.90;;;;;;5050256;28;19968;-63
2022/11/28 01:23:10;;;;;;;;;;;5.70;99.90;;;;;;5050838;28;20461;-63
2022/11/28 01:25:38;;;;;;;;;;;5.70;99.90;;;;;;5050856;28;19975;-63
2022/11/28 01:28:07;;;;;;;;;;;5.70;99.90;;;;;;5050543;28;19968;-63
2022/11/28 01:30:35;;;;;;;;;;;5.60;99.90;;;;;;5052353;28;20739;-63
2022/11/28 01:33:02;;;;;;;;;;;5.70;99.90;;;;;;5054266;28;19974;-63
2022/11/28 01:35:30;;;;;;;;;;;5.70;99.90;;;;;;5043725;28;19969;-62
2022/11/28 01:37:58;;;;;;;;;;;5.80;99.90;;;;;;5034383;28;19975;-63
2022/11/28 01:40:25;;;;;;;;;;;5.70;99.90;;;;;;5033652;28;19998;-63
2022/11/28 01:42:53;;;;;;;;;;;5.60;99.90;;;;;;5034460;28;19979;-63
2022/11/28 01:45:24;;;;;;;;;;;5.50;99.90;;;;;;5034236;28;19976;-63
2022/11/28 01:47:53;;;;;;;;;;;5.30;99.90;;;;;;5039682;28;20063;-63
2022/11/28 01:50:22;;;;;;;;;;;5.20;99.90;;;;;;5052250;28;19965;-63
2022/11/28 01:52:51;;;;;;;;;;;5.30;99.90;;;;;;5054147;28;19971;-64
2022/11/28 01:55:20;;;;;;;;;;;5.30;99.90;;;;;;5044752;28;20051;-64
2022/11/28 01:57:48;;;;;;;;;;;5.50;99.90;;;;;;5034257;28;20001;-63
2022/11/28 02:00:17;;;;;;;;;;;5.40;99.90;;;;;;5033373;28;19972;-63
2022/11/28 02:02:47;;;;;;;;;;;5.50;99.90;;;;;;5044377;28;19964;-63
2022/11/28 02:05:16;;;;;;;;;;;5.40;99.90;;;;;;5053691;28;19964;-63
2022/11/28 02:07:44;;;;;;;;;;;5.40;99.90;;;;;;5053984;28;19968;-63
2022/11/28 02:10:15;;;;;;;;;;;5.50;99.90;;;;;;5052983;28;19983;-63
2022/11/28 02:13:02;;;;;;;;;;;5.50;99.90;;;;;;5054276;28;19967;-63
2022/11/28 02:15:36;;;;;;;;;;;5.80;99.90;;;;;;5053486;28;20459;-63
2022/11/28 02:18:19;;;;;;;;;;;5.70;99.90;;;;;;5053869;28;19968;-63
2022/11/28 02:21:08;;;;;;;;;;;5.70;99.90;;;;;;5053111;28;19976;-63
2022/11/28 02:23:55;;;;;;;;;;;5.80;99.90;;;;;;5053548;28;19968;-65
2022/11/28 02:26:42;;;;;;;;;;;5.80;99.90;;;;;;5053726;28;19968;-63
2022/11/28 02:29:28;;;;;;;;;;;5.80;99.90;;;;;;5053413;28;19972;-64
2022/11/28 02:32:08;;;;;;;;;;;5.80;99.90;;;;;;5053153;28;20433;-63
2022/11/28 02:34:40;;;;;;;;;;;5.80;99.90;;;;;;5049790;28;19965;-63
2022/11/28 02:37:15;;;;;;;;;;;5.70;99.90;;;;;;5033761;28;19969;-63
2022/11/28 02:39:45;;;;;;;;;;;5.70;99.90;;;;;;5044800;28;19968;-63
2022/11/28 02:42:16;;;;;;;;;;;5.50;99.90;;;;;;5053255;28;20330;-63
2022/11/28 02:44:47;;;;;;;;;;;5.60;99.90;;;;;;5051856;28;19970;-63
2022/11/28 02:47:23;;;;;;;;;;;5.60;99.90;;;;;;5052721;28;19968;-63
2022/11/28 02:49:54;;;;;;;;;;;5.70;99.90;;;;;;5032496;28;20323;-63
2022/11/28 02:52:26;;;;;;;;;;;5.80;99.90;;;;;;5033403;28;19973;-63
2022/11/28 02:54:54;;;;;;;;;;;5.80;99.90;;;;;;5033006;28;19968;-63
2022/11/28 02:57:22;;;;;;;;;;;5.90;99.90;;;;;;5050909;28;20066;-63
2022/11/28 02:59:50;;;;;;;;;;;6.10;99.90;;;;;;5052248;28;19968;-63
2022/11/28 03:02:21;;;;;;;;;;;6.10;99.90;;;;;;5052641;28;20066;-63
2022/11/28 03:04:53;;;;;;;;;;;6.30;99.90;;;;;;5047727;28;19971;-63
2022/11/28 03:07:28;;;;;;;;;;;6.30;99.90;;;;;;5033068;28;19975;-63
2022/11/28 03:10:03;;;;;;;;;;;6.10;99.90;;;;;;5032132;28;19968;-63
2022/11/28 03:12:35;;;;;;;;;;;6.20;99.90;;;;;;5035231;28;19975;-63
2022/11/28 03:15:05;;;;;;;;;;;6.30;99.90;;;;;;5052342;28;19982;-63
2022/11/28 03:17:38;;;;;;;;;;;6.20;99.90;;;;;;5052895;28;19968;-63
2022/11/28 03:20:14;;;;;;;;;;;6.10;99.90;;;;;;5051894;28;20471;-63
2022/11/28 03:22:44;;;;;;;;;;;6.10;99.90;;;;;;5052473;28;19968;-63
2022/11/28 03:25:18;;;;;;;;;;;6.10;99.90;;;;;;5052233;28;20433;-63
2022/11/28 03:27:48;;;;;;;;;;;6.20;99.90;;;;;;5052598;28;19972;-63
2022/11/28 03:30:18;;;;;;;;;;;6.10;99.90;;;;;;5051760;28;19968;-63
2022/11/28 03:32:50;;;;;;;;;;;6.00;99.90;;;;;;5051977;28;20050;-63
2022/11/28 03:35:18;;;;;;;;;;;5.90;99.90;;;;;;5042634;28;19968;-63
2022/11/28 03:37:48;;;;;;;;;;;5.70;99.90;;;;;;5050479;28;20425;-63
2022/11/28 03:40:19;;;;;;;;;;;5.60;99.90;;;;;;5063605;22;19983;-65
2022/11/28 03:42:49;;;;;;;;;;;5.70;99.90;;;;;;5040211;28;19964;-65
2022/11/28 03:45:18;;;;;;;;;;;5.60;99.90;;;;;;5048994;28;19964;-65
2022/11/28 03:47:51;;;;;;;;;;;5.60;99.90;;;;;;5051990;28;20522;-66
2022/11/28 03:50:21;;;;;;;;;;;5.60;99.90;;;;;;5051507;28;19972;-66
2022/11/28 03:52:50;;;;;;;;;;;5.60;99.90;;;;;;5051250;28;19974;-66
2022/11/28 03:55:20;;;;;;;;;;;5.70;99.90;;;;;;5051694;28;19969;-66
2022/11/28 03:57:50;;;;;;;;;;;5.60;99.90;;;;;;5051810;28;19968;-65
2022/11/28 04:00:17;;;;;;;;;;;5.60;99.90;;;;;;5051174;28;19968;-66
2022/11/28 04:02:48;;;;;;;;;;;5.70;99.90;;;;;;5051576;28;20730;-66
2022/11/28 04:05:22;;;;;;;;;;;5.60;99.90;;;;;;5051274;28;19964;-66
2022/11/28 04:07:52;;;;;;;;;;;5.70;99.90;;;;;;5051912;28;19975;-66
2022/11/28 04:10:21;;;;;;;;;;;5.70;99.90;;;;;;5051274;28;19998;-65
2022/11/28 04:12:53;;;;;;;;;;;5.70;99.90;;;;;;5051457;28;20074;-66
2022/11/28 04:15:26;;;;;;;;;;;5.70;99.90;;;;;;5051504;28;19972;-66
2022/11/28 04:17:55;;;;;;;;;;;5.70;99.90;;;;;;5051715;28;19968;-66
2022/11/28 04:20:28;;;;;;;;;;;5.70;99.90;;;;;;5050510;28;20063;-66
2022/11/28 04:22:59;;;;;;;;;;;5.90;99.90;;;;;;5051509;28;20356;-65
2022/11/28 04:25:28;;;;;;;;;;;5.80;99.90;;;;;;5051327;28;19974;-66
2022/11/28 04:27:59;;;;;;;;;;;5.70;99.90;;;;;;5051585;28;20044;-66
2022/11/28 04:30:27;;;;;;;;;;;5.70;99.90;;;;;;5045491;28;19968;-66
2022/11/28 04:32:57;;;;;;;;;;;5.80;99.90;;;;;;5044170;28;20010;-66
2022/11/28 04:35:28;;;;;;;;;;;5.80;99.90;;;;;;5050474;28;20018;-66
2022/11/28 04:37:57;;;;;;;;;;;5.80;99.90;;;;;;5052208;28;20337;-66
2022/11/28 04:40:26;;;;;;;;;;;5.90;99.90;;;;;;5050288;28;20018;-66
2022/11/28 04:42:57;;;;;;;;;;;5.80;99.90;;;;;;5051138;28;19975;-66
2022/11/28 04:45:27;;;;;;;;;;;5.90;99.90;;;;;;5051091;28;19968;-66
2022/11/28 04:47:55;;;;;;;;;;;5.90;99.90;;;;;;5051442;28;20066;-66
2022/11/28 04:50:24;;;;;;;;;;;5.80;99.90;;;;;;5050473;28;19969;-66
2022/11/28 04:52:55;;;;;;;;;;;5.80;99.90;;;;;;5051031;28;19976;-66
2022/11/28 04:55:27;;;;;;;;;;;5.70;99.90;;;;;;5051019;28;19972;-66
2022/11/28 04:57:59;;;;;;;;;;;5.70;99.90;;;;;;5051190;28;19974;-67
2022/11/28 05:00:27;;;;;;;;;;;5.80;99.90;;;;;;5050466;28;19968;-66
2022/11/28 05:02:56;;;;;;;;;;;5.70;99.90;;;;;;5051236;28;20352;-65
2022/11/28 05:05:24;;;;;;;;;;;6.00;99.90;;;;;;5052735;28;19964;-67
2022/11/28 05:07:54;;;;;;;;;;;6.10;99.90;;;;;;5055107;28;19976;-66
2022/11/28 05:10:21;;;;;;;;;;;6.00;99.90;;;;;;5054256;28;19972;-66
2022/11/28 05:12:49;;;;;;;;;;;5.90;99.90;;;;;;5055040;28;20012;-65
2022/11/28 05:15:17;;;;;;;;;;;6.20;99.90;;;;;;5054864;28;19969;-64
2022/11/28 05:17:46;;;;;;;;;;;6.30;99.90;;;;;;5035183;28;19996;-66
2022/11/28 05:20:14;;;;;;;;;;;6.20;99.90;;;;;;5037948;28;19964;-67
2022/11/28 05:22:41;;;;;;;;;;;6.10;99.90;;;;;;5042901;28;19979;-66
2022/11/28 05:25:11;;;;;;;;;;;5.90;99.90;;;;;;5041785;28;19978;-66
2022/11/28 05:27:38;;;;;;;;;;;5.80;99.90;;;;;;5040635;28;19978;-67
2022/11/28 05:30:07;;;;;;;;;;;5.60;99.90;;;;;;5041446;28;19972;-66
2022/11/28 05:32:35;;;;;;;;;;;5.50;99.90;;;;;;5042316;28;19975;-67
2022/11/28 05:35:04;;;;;;;;;;;5.30;99.90;;;;;;5041353;28;20455;-66
2022/11/28 05:37:31;;;;;;;;;;;5.20;99.90;;;;;;5040109;28;20022;-67
2022/11/28 05:39:59;;;;;;;;;;;5.00;99.90;;;;;;5040270;28;19984;-66
2022/11/28 05:42:31;;;;;;;;;;;4.90;99.90;;;;;;5042086;28;19976;-66
2022/11/28 05:44:59;;;;;;;;;;;4.90;99.90;;;;;;5041387;28;19978;-66
2022/11/28 05:47:29;;;;;;;;;;;4.90;99.90;;;;;;5038495;28;19983;-66
2022/11/28 05:49:57;;;;;;;;;;;4.90;99.90;;;;;;5040495;28;19972;-66
2022/11/28 05:52:25;;;;;;;;;;;4.90;99.90;;;;;;5042234;28;19979;-66
2022/11/28 05:54:52;;;;;;;;;;;4.80;99.90;;;;;;5040871;28;19972;-66
2022/11/28 05:57:20;;;;;;;;;;;4.80;99.90;;;;;;5039074;28;19968;-66
2022/11/28 05:59:49;;;;;;;;;;;4.80;99.90;;;;;;5039204;28;19994;-66
2022/11/28 06:02:17;;;;;;;;;;;4.70;99.90;;;;;;5040668;28;20437;-66
2022/11/28 06:04:44;;;;;;;;;;;4.70;99.90;;;;;;5041679;28;19964;-66
2022/11/28 06:07:13;;;;;;;;;;;4.70;99.90;;;;;;5039190;28;20569;-67
2022/11/28 06:09:40;;;;;;;;;;;4.80;99.90;;;;;;5040069;28;19972;-66
2022/11/28 06:12:08;;;;;;;;;;;4.90;99.90;;;;;;5041556;28;20075;-66
2022/11/28 06:14:36;;;;;;;;;;;4.80;99.90;;;;;;5041289;28;19972;-66
2022/11/28 06:17:05;;;;;;;;;;;4.70;99.90;;;;;;5038677;28;19972;-66
2022/11/28 06:19:33;;;;;;;;;;;4.70;99.90;;;;;;5040999;28;19968;-66
2022/11/28 06:22:01;;;;;;;;;;;4.70;99.90;;;;;;5041037;28;20006;-66
2022/11/28 06:24:28;;;;;;;;;;;4.70;99.90;;;;;;5041014;28;19982;-66
2022/11/28 06:26:56;;;;;;;;;;;4.70;99.90;;;;;;5038704;28;19972;-66
2022/11/28 06:29:24;;;;;;;;;;;4.70;99.90;;;;;;5039782;28;20566;-66
2022/11/28 06:31:52;;;;;;;;;;;4.70;99.90;;;;;;5039908;28;19972;-66
2022/11/28 06:34:21;;;;;;;;;;;4.70;99.90;;;;;;5040922;28;20021;-66
2022/11/28 06:36:49;;;;;;;;;;;4.70;99.90;;;;;;5035800;28;20001;-66
2022/11/28 06:39:17;;;;;;;;;;;4.70;99.90;;;;;;5040190;28;19970;-67
2022/11/28 06:41:44;;;;;;;;;;;4.60;99.90;;;;;;5036509;28;20447;-66
2022/11/28 06:44:13;;;;;;;;;;;4.60;99.90;;;;;;5040372;28;20345;-66
2022/11/28 06:46:40;;;;;;;;;;;4.60;99.90;;;;;;5040025;28;19973;-66
2022/11/28 06:49:09;;;;;;;;;;;4.60;99.90;;;;;;5040077;28;19972;-66
2022/11/28 06:51:39;;;;;;;;;;;4.60;99.90;;;;;;5039103;28;20487;-65
2022/11/28 06:54:07;;;;;;;;;;;4.70;99.90;;;;;;5040282;28;20360;-66
2022/11/28 06:56:35;;;;;;;;;;;4.80;99.90;;;;;;5038632;28;20011;-67
2022/11/28 06:59:03;;;;;;;;;;;4.80;99.90;;;;;;5040061;28;19978;-66
2022/11/28 07:01:31;;;;;;;;;;;4.80;99.90;;;;;;5039576;28;19979;-66
2022/11/28 07:03:59;;;;;;;;;;;4.90;99.90;;;;;;5040432;28;20004;-66
2022/11/28 07:06:27;;;;;;;;;;;4.80;99.90;;;;;;5037947;28;19987;-66
2022/11/28 07:08:57;;;;;;;;;;;4.90;99.90;;;;;;5039739;28;19972;-66
2022/11/28 07:11:25;;;;;;;;;;;4.90;99.90;;;;;;5039046;28;19972;-66
2022/11/28 07:13:54;;;;;;;;;;;4.90;99.90;;;;;;5041426;28;20020;-67
2022/11/28 07:16:22;;;;;;;;;;;4.80;99.90;;;;;;5037566;28;19983;-66
2022/11/28 07:18:50;;;;;;;;;;;4.80;99.90;;;;;;5039550;28;19964;-66
2022/11/28 07:21:18;;;;;;;;;;;4.80;99.90;;;;;;5037618;28;19964;-66
2022/11/28 07:23:46;;;;;;;;;;;4.90;99.90;;;;;;5044952;28;20368;-65
2022/11/28 07:26:16;;;;;;;;;;;4.90;99.90;;;;;;5052877;28;20066;-65
2022/11/28 07:28:44;;;;;;;;;;;4.90;99.90;;;;;;5051663;28;20388;-65
2022/11/28 07:31:13;;;;;;;;;;;5.00;99.90;;;;;;5051447;28;19975;-65
2022/11/28 07:33:42;;;;;;;;;;;4.90;99.90;;;;;;5052450;28;19965;-65
2022/11/28 07:36:11;;;;;;;;;;;4.90;99.90;;;;;;5052538;28;19964;-65
2022/11/28 07:38:39;;;;;;;;;;;4.90;99.90;;;;;;5052654;28;19968;-65
2022/11/28 07:41:07;;;;;;;;;;;5.00;99.90;;;;;;5051666;28;20470;-65
2022/11/28 07:43:37;;;;;;;;;;;5.00;99.90;;;;;;5052782;28;20003;-65
2022/11/28 07:46:07;;;;;;;;;;;5.00;99.90;;;;;;5052763;28;19982;-65
2022/11/28 07:48:35;;;;;;;;;;;5.00;99.90;;;;;;5052662;28;20007;-66
2022/11/28 07:51:05;;;;;;;;;;;5.00;99.90;;;;;;5051516;28;19968;-65
2022/11/28 07:53:33;;;;;;;;;;;4.90;99.90;;;;;;5053090;28;20374;-65
2022/11/28 07:56:02;;;;;;;;;;;4.90;99.90;;;;;;5052826;28;19972;-65
2022/11/28 07:58:30;;;;;;;;;;;4.90;99.90;;;;;;5052362;28;20154;-65
2022/11/28 08:00:59;;;;;;;;;;;4.90;99.90;;;;;;5051319;28;19974;-65
2022/11/28 08:03:26;;;;;;;;;;;4.90;99.90;;;;;;5051992;28;20058;-65
2022/11/28 08:05:59;;;;;;;;;;;4.90;99.90;;;;;;5052273;28;20006;-66
2022/11/28 08:08:29;;;;;;;;;;;4.90;99.90;;;;;;5052250;28;20014;-66
2022/11/28 08:10:58;;;;;;;;;;;5.00;99.90;;;;;;5051250;28;19967;-66
2022/11/28 08:13:26;;;;;;;;;;;5.00;99.90;;;;;;5052277;28;19982;-65
2022/11/28 08:15:54;;;;;;;;;;;5.00;99.90;;;;;;5052031;28;20360;-65
2022/11/28 08:18:23;;;;;;;;;;;5.00;99.90;;;;;;5052157;28;19978;-65
2022/11/28 08:20:50;;;;;;;;;;;5.00;99.90;;;;;;5050866;28;20463;-66
2022/11/28 08:23:21;;;;;;;;;;;5.00;99.90;;;;;;5052050;28;19968;-66
2022/11/28 08:25:49;;;;;;;;;;;5.10;99.90;;;;;;5051836;28;19972;-66
2022/11/28 08:28:16;;;;;;;;;;;5.10;99.90;;;;;;5051980;28;19975;-66
2022/11/28 08:30:44;;;;;;;;;;;5.10;99.90;;;;;;5051192;28;19968;-66
2022/11/28 08:33:12;;;;;;;;;;;5.10;99.90;;;;;;5051758;28;19968;-66
2022/11/28 08:35:41;;;;;;;;;;;5.10;99.90;;;;;;5051249;28;20348;-66
2022/11/28 08:38:09;;;;;;;;;;;5.10;99.90;;;;;;5051568;28;19972;-66
2022/11/28 08:40:37;;;;;;;;;;;5.10;99.90;;;;;;5050843;28;20063;-66
2022/11/28 08:43:06;;;;;;;;;;;5.10;99.90;;;;;;5051617;28;19968;-66
2022/11/28 08:45:34;;;;;;;;;;;5.20;99.90;;;;;;5051480;28;19968;-66
2022/11/28 08:48:02;;;;;;;;;;;5.20;99.90;;;;;;5051558;28;19976;-66
2022/11/28 08:50:30;;;;;;;;;;;5.20;99.90;;;;;;5050711;28;19974;-66
2022/11/28 08:52:59;;;;;;;;;;;5.20;99.90;;;;;;5051770;28;19968;-66
2022/11/28 08:55:34;;;;;;;;;;;5.30;99.90;;;;;;5051439;28;20106;-66
2022/11/28 08:58:08;;;;;;;;;;;5.30;99.90;;;;;;5051593;28;19975;-66
2022/11/28 09:00:36;;;;;;;;;;;5.30;99.90;;;;;;5050854;28;20461;-66
2022/11/28 09:03:04;;;;;;;;;;;5.40;99.90;;;;;;5051348;28;20063;-66
2022/11/28 09:05:31;;;;;;;;;;;5.50;99.90;;;;;;5051089;28;20102;-66
2022/11/28 09:08:00;;;;;;;;;;;5.60;99.90;;;;;;5051272;28;19968;-66
2022/11/28 09:10:28;;;;;;;;;;;5.60;99.90;;;;;;5050775;28;20342;-66
2022/11/28 09:12:56;;;;;;;;;;;5.50;99.90;;;;;;5051502;28;20359;-66
2022/11/28 09:15:24;;;;;;;;;;;5.50;99.90;;;;;;5051810;28;20344;-66
2022/11/28 09:17:52;;;;;;;;;;;5.60;99.90;;;;;;5051427;28;19972;-66
2022/11/28 09:20:20;;;;;;;;;;;5.60;99.90;;;;;;5050277;28;20344;-67
2022/11/28 09:22:48;;;;;;;;;;;5.70;99.90;;;;;;5050861;28;19968;-66
2022/11/28 09:25:17;;;;;;;;;;;5.70;99.90;;;;;;5051343;28;19974;-66
2022/11/28 09:27:45;;;;;;;;;;;5.70;99.90;;;;;;5051249;28;20330;-66
2022/11/28 09:30:13;;;;;;;;;;;5.70;99.90;;;;;;5050009;28;19968;-66
2022/11/28 09:32:41;;;;;;;;;;;5.80;99.90;;;;;;5050912;28;19968;-66
2022/11/28 09:35:08;;;;;;;;;;;5.80;99.90;;;;;;5050387;28;19964;-66
2022/11/28 09:37:36;;;;;;;;;;;5.80;99.90;;;;;;5050863;28;20254;-66
2022/11/28 09:40:05;;;;;;;;;;;5.80;99.90;;;;;;5069635;23;19974;-63
2022/11/28 09:42:43;;;;;;;;;;;5.80;99.90;;;;;;5043194;28;19968;-62
2022/11/28 09:45:13;;;;;;;;;;;5.80;99.90;;;;;;5051171;28;20054;-63
2022/11/28 09:47:42;;;;;;;;;;;5.80;99.90;;;;;;5050820;28;19975;-63
2022/11/28 09:50:14;;;;;;;;;;;5.90;99.90;;;;;;5050233;28;19975;-63
2022/11/28 09:52:45;;;;;;;;;;;5.80;99.90;;;;;;5054714;28;20019;-63
2022/11/28 09:55:16;;;;;;;;;;;5.90;99.90;;;;;;5054826;28;19972;-63
2022/11/28 09:57:46;;;;;;;;;;;5.90;99.90;;;;;;5054434;28;19982;-63
2022/11/28 10:00:20;;;;;;;;;;;6.00;99.90;;;;;;5053702;28;20062;-63
2022/11/28 10:03:05;;;;;;;;;;;6.10;99.90;;;;;;5054662;28;19978;-63
2022/11/28 10:05:35;;;;;;;;;;;6.10;99.90;;;;;;5064689;28;20448;-63
2022/11/28 10:08:10;;;;;;;;;;;6.20;99.90;;;;;;5074200;28;19968;-63
2022/11/28 10:10:42;;;;;;;;;;;6.30;99.90;;;;;;5073760;28;20511;-63
2022/11/28 10:13:13;;;;;;;;;;;6.40;99.90;;;;;;5074487;28;19968;-63
2022/11/28 10:15:48;;;;;;;;;;;6.40;99.90;;;;;;5074411;28;20075;-63
2022/11/28 10:18:21;;;;;;;;;;;6.50;99.90;;;;;;5074184;28;20029;-63
2022/11/28 10:20:52;;;;;;;;;;;6.60;99.90;;;;;;5073224;28;19978;-63
2022/11/28 10:23:22;;;;;;;;;;;6.70;99.90;;;;;;5074354;28;20417;-63
2022/11/28 10:25:52;;;;;;;;;;;6.70;99.90;;;;;;5074149;28;19968;-63
2022/11/28 10:28:23;;;;;;;;;;;6.80;99.90;;;;;;5074477;28;19978;-63
2022/11/28 10:30:54;;;;;;;;;;;6.80;99.90;;;;;;5073316;28;20407;-63
2022/11/28 10:33:24;;;;;;;;;;;6.90;99.90;;;;;;5071690;28;20059;-63
2022/11/28 10:35:54;;;;;;;;;;;6.90;99.90;;;;;;5054124;28;19964;-63
2022/11/28 10:38:26;;;;;;;;;;;7.10;99.90;;;;;;5053266;28;19975;-63
2022/11/28 10:40:57;;;;;;;;;;;7.10;99.90;;;;;;5052816;28;19968;-63
2022/11/28 10:43:38;;;;;;;;;;;7.10;99.90;;;;;;5053777;28;20421;-63
2022/11/28 10:46:19;;;;;;;;;;;7.10;99.90;;;;;;5053639;28;19978;-63
2022/11/28 10:48:49;;;;;;;;;;;7.20;99.90;;;;;;5053362;28;20510;-63
2022/11/28 10:51:23;;;;;;;;;;;7.20;99.90;;;;;;5052669;28;19975;-63
2022/11/28 10:53:53;;;;;;;;;;;7.30;99.90;;;;;;5053694;28;19979;-63
2022/11/28 10:56:27;;;;;;;;;;;7.20;99.90;;;;;;5053593;28;20069;-63
2022/11/28 10:58:58;;;;;;;;;;;7.30;99.90;;;;;;5053104;28;19972;-63
2022/11/28 11:01:27;;;;;;;;;;;7.30;99.90;;;;;;5052335;28;20441;-63
2022/11/28 11:03:55;;;;;;;;;;;7.30;99.90;;;;;;5053330;28;20380;-63
2022/11/28 11:06:24;;;;;;;;;;;7.30;99.90;;;;;;5060955;28;19986;-63
2022/11/28 11:09:09;;;;;;;;;;;7.40;99.90;;;;;;5072875;28;19978;-63
2022/11/28 11:11:40;;;;;;;;;;;7.40;99.90;;;;;;5072417;28;19972;-63
2022/11/28 11:14:10;;;;;;;;;;;7.50;99.90;;;;;;5055018;28;20425;-63
2022/11/28 11:16:48;;;;;;;;;;;7.40;99.90;;;;;;5033391;28;19973;-63
2022/11/28 11:19:23;;;;;;;;;;;7.40;99.90;;;;;;5032557;28;19976;-63
2022/11/28 11:21:58;;;;;;;;;;;7.30;99.90;;;;;;5032347;28;19980;-63
2022/11/28 11:24:26;;;;;;;;;;;7.20;99.90;;;;;;5033016;28;19971;-63
2022/11/28 11:27:01;;;;;;;;;;;7.30;99.90;;;;;;5033029;28;19975;-63
2022/11/28 11:29:34;;;;;;;;;;;7.40;99.90;;;;;;5032774;28;20014;-62
2022/11/28 11:32:05;;;;;;;;;;;7.30;99.90;;;;;;5032964;28;19968;-62
2022/11/28 11:34:35;;;;;;;;;;;7.50;99.90;;;;;;5040435;28;20015;-62
2022/11/28 11:37:17;;;;;;;;;;;7.30;99.90;;;;;;5064378;28;20332;-62
2022/11/28 11:39:47;;;;;;;;;;;7.30;99.90;;;;;;5071635;28;20343;-62
2022/11/28 11:42:19;;;;;;;;;;;7.10;99.90;;;;;;5072963;28;19974;-62
2022/11/28 11:44:48;;;;;;;;;;;7.10;99.90;;;;;;5072502;28;19982;-62
2022/11/28 11:47:16;;;;;;;;;;;7.10;99.90;;;;;;5072504;28;19974;-62
2022/11/28 11:49:45;;;;;;;;;;;7.10;99.90;;;;;;5071507;28;19974;-62
2022/11/28 11:52:15;;;;;;;;;;;7.10;99.90;;;;;;5072395;28;19968;-62
2022/11/28 11:54:53;;;;;;;;;;;7.10;99.90;;;;;;5072487;28;19972;-62
2022/11/28 11:57:22;;;;;;;;;;;7.10;99.90;;;;;;5072197;28;19968;-61
2022/11/28 12:00:03;;;;;;;;;;;7.10;99.90;;;;;;5071294;28;20429;-62
2022/11/28 12:02:32;;;;;;;;;;;6.90;99.90;;;;;;5072226;28;19974;-62
2022/11/28 12:05:02;;;;;;;;;;;7.00;99.90;;;;;;5069770;28;20447;-61
2022/11/28 12:07:33;;;;;;;;;;;7.10;99.90;;;;;;5063793;28;20013;-61
2022/11/28 12:10:01;;;;;;;;;;;7.20;99.90;;;;;;5071252;28;20070;-61
2022/11/28 12:12:49;;;;;;;;;;;7.20;99.90;;;;;;5071945;28;19974;-62
2022/11/28 12:15:21;;;;;;;;;;;7.20;99.90;;;;;;5072137;28;20333;-62
2022/11/28 12:17:55;;;;;;;;;;;7.30;99.90;;;;;;5072095;28;19974;-62
2022/11/28 12:20:39;;;;;;;;;;;7.20;99.90;;;;;;5070811;28;20453;-61
2022/11/28 12:23:13;;;;;;;;;;;7.10;99.90;;;;;;5071910;28;19969;-62
2022/11/28 12:25:48;;;;;;;;;;;7.10;99.90;;;;;;5071960;28;20383;-62
2022/11/28 12:28:21;;;;;;;;;;;7.10;99.90;;;;;;5071896;28;20006;-63
2022/11/28 12:30:57;;;;;;;;;;;7.10;99.90;;;;;;5070957;28;19971;-61
2022/11/28 12:33:37;;;;;;;;;;;7.10;99.90;;;;;;5071901;28;19970;-61
2022/11/28 12:36:10;;;;;;;;;;;7.00;99.90;;;;;;5062098;28;19964;-61
2022/11/28 12:38:43;;;;;;;;;;;7.00;99.90;;;;;;5031876;28;20392;-62
2022/11/28 12:41:23;;;;;;;;;;;7.00;99.90;;;;;;5030635;28;19968;-62
2022/11/28 12:44:02;;;;;;;;;;;7.10;99.90;;;;;;5032107;28;20563;-62
2022/11/28 12:46:38;;;;;;;;;;;7.20;99.90;;;;;;5031667;28;20449;-62
2022/11/28 12:49:15;;;;;;;;;;;7.30;99.90;;;;;;5031716;28;19975;-61
2022/11/28 12:51:57;;;;;;;;;;;7.30;99.90;;;;;;5030879;28;19973;-62
2022/11/28 12:54:37;;;;;;;;;;;7.20;99.90;;;;;;5031682;28;19972;-64
2022/11/28 12:57:08;;;;;;;;;;;7.20;99.90;;;;;;5031805;28;19972;-62
2022/11/28 12:59:38;;;;;;;;;;;7.20;99.90;;;;;;5031351;28;19974;-61
2022/11/28 13:02:18;;;;;;;;;;;7.20;99.90;;;;;;5031609;28;19969;-62
2022/11/28 13:04:54;;;;;;;;;;;7.20;99.90;;;;;;5043026;28;20032;-62
2022/11/28 13:07:28;;;;;;;;;;;7.10;99.90;;;;;;5063328;28;20081;-62
2022/11/28 13:10:00;;;;;;;;;;;7.00;99.90;;;;;;5071377;28;19968;-62
2022/11/28 13:12:33;;;;;;;;;;;6.90;99.90;;;;;;5071469;28;20022;-62
2022/11/28 13:15:04;;;;;;;;;;;6.90;99.90;;;;;;5071528;28;20011;-62
2022/11/28 13:17:38;;;;;;;;;;;6.90;99.90;;;;;;5071656;28;19978;-63
2022/11/28 13:20:12;;;;;;;;;;;6.80;99.90;;;;;;5070375;28;20528;-62
2022/11/28 13:22:43;;;;;;;;;;;6.70;99.90;;;;;;5071431;28;20077;-62
2022/11/28 13:25:18;;;;;;;;;;;6.70;99.90;;;;;;5071429;28;19968;-62
2022/11/28 13:27:50;;;;;;;;;;;6.70;99.90;;;;;;5075250;28;19974;-62
2022/11/28 13:30:19;;;;;;;;;;;6.80;99.90;;;;;;5074460;28;20412;-62
2022/11/28 13:32:53;;;;;;;;;;;6.80;99.90;;;;;;5075140;28;19971;-61
2022/11/28 13:35:21;;;;;;;;;;;6.80;99.90;;;;;;5070835;28;19964;-62
2022/11/28 13:37:53;;;;;;;;;;;6.80;99.90;;;;;;5068305;28;19974;-62
2022/11/28 13:40:43;;;;;;;;;;;6.90;99.90;;;;;;5073724;28;19972;-62
2022/11/28 13:43:14;;;;;;;;;;;7.00;99.90;;;;;;5074888;28;20025;-62
2022/11/28 13:45:42;;;;;;;;;;;7.00;99.90;;;;;;5074461;28;19974;-62
2022/11/28 13:48:29;;;;;;;;;;;7.00;99.90;;;;;;5074950;28;19972;-62
2022/11/28 13:51:19;;;;;;;;;;;6.90;99.90;;;;;;5073920;28;19976;-62
2022/11/28 13:54:14;;;;;;;;;;;7.00;99.90;;;;;;5074629;28;19975;-62
2022/11/28 13:56:42;;;;;;;;;;;7.00;99.90;;;;;;5074741;28;20291;-62
2022/11/28 13:59:16;;;;;;;;;;;7.10;99.90;;;;;;5074386;28;19978;-62
2022/11/28 14:01:44;;;;;;;;;;;7.00;99.90;;;;;;5073876;28;20562;-62
2022/11/28 14:04:13;;;;;;;;;;;6.90;99.90;;;;;;5072197;28;19975;-62
2022/11/28 14:06:44;;;;;;;;;;;6.90;99.90;;;;;;5065493;28;19964;-62
2022/11/28 14:09:24;;;;;;;;;;;7.00;99.90;;;;;;5074412;28;19968;-62
2022/11/28 14:11:57;;;;;;;;;;;7.00;99.90;;;;;;5073304;28;19982;-62
2022/11/28 14:14:32;;;;;;;;;;;7.00;99.90;;;;;;5074473;28;20022;-62
2022/11/28 14:17:08;;;;;;;;;;;7.00;99.90;;;;;;5074321;28;20464;-62
2022/11/28 14:19:46;;;;;;;;;;;7.10;99.90;;;;;;5073814;28;20416;-62
2022/11/28 14:22:24;;;;;;;;;;;7.20;99.90;;;;;;5074276;28;19974;-62
2022/11/28 14:24:54;;;;;;;;;;;7.30;99.90;;;;;;5074295;28;19978;-62
2022/11/28 14:27:23;;;;;;;;;;;7.40;99.90;;;;;;5074144;28;19974;-62
2022/11/28 14:29:52;;;;;;;;;;;7.50;99.90;;;;;;5073207;28;20471;-63
2022/11/28 14:32:24;;;;;;;;;;;7.60;99.90;;;;;;5073987;28;19967;-62
2022/11/28 14:34:58;;;;;;;;;;;7.60;99.90;;;;;;5071650;28;19978;-62
2022/11/28 14:37:56;;;;;;;;;;;7.50;99.90;;;;;;5065031;28;19972;-62
2022/11/28 14:40:42;;;;;;;;;;;7.60;99.90;;;;;;5072706;28;19971;-64
2022/11/28 14:43:25;;;;;;;;;;;7.70;99.90;;;;;;5073860;28;19968;-62
2022/11/28 14:46:14;;;;;;;;;;;7.70;99.90;;;;;;5070691;28;19978;-62
2022/11/28 14:49:02;;;;;;;;;;;7.70;99.90;;;;;;5073667;28;20463;-62
2022/11/28 14:51:45;;;;;;;;;;;7.80;99.90;;;;;;5072518;28;19978;-62
2022/11/28 14:54:19;;;;;;;;;;;7.80;99.90;;;;;;5072917;28;19979;-62